This is the latest recevied weather packets stored in our database for station/object N6DZK. If no packets are shown the sender has not sent any weather packets the latest 10 day(s).
| Time | Temp. | Humidity | Pressure | Rain* | Wind** | Luminosity | Snow |
|---|---|---|---|---|---|---|---|
| 1777935215 | 20.56° C | 49% | 1014.3 hPa | 0 mm | - | 324 W/m² | - |
| 1777934913 | 20.56° C | 48% | 1014.3 hPa | 0 mm | - | 348 W/m² | - |
| 1777934610 | 20.56° C | 49% | 1014.3 hPa | 0 mm | - | 526 W/m² | - |
| 1777934306 | 20.56° C | 49% | 1014.4 hPa | 0 mm | - | 500 W/m² | - |
| 1777934002 | 21.11° C | 47% | 1014.3 hPa | 0 mm | - | 380 W/m² | - |
| 1777933699 | 22.78° C | 41% | 1014.5 hPa | 0 mm | - | 278 W/m² | - |
| 1777933396 | 23.89° C | 40% | 1014.5 hPa | 0 mm | - | 408 W/m² | - |
| 1777933094 | 23.89° C | 44% | 1014.4 hPa | 0 mm | - | 933 W/m² | - |
| 1777932790 | 23.89° C | 42% | 1014.4 hPa | 0 mm | - | 1031 W/m² | - |
| 1777932487 | 23.33° C | 42% | 1014.5 hPa | 0 mm | - | 487 W/m² | - |
| 1777932184 | 23.33° C | 41% | 1014.6 hPa | 0 mm | - | 928 W/m² | - |
| 1777931882 | 23.89° C | 43% | 1014.5 hPa | 0 mm | - | 529 W/m² | - |
| 1777931577 | 23.33° C | 44% | 1014.7 hPa | 0 mm | - | 793 W/m² | - |
| 1777931274 | 23.33° C | 42% | 1014.7 hPa | 0 mm | - | 650 W/m² | - |
| 1777930970 | 23.89° C | 42% | 1014.7 hPa | 0 mm | - | 1032 W/m² | - |
| 1777930667 | 23.33° C | 42% | 1014.8 hPa | 0 mm | - | 565 W/m² | - |
| 1777930363 | 22.78° C | 43% | 1014.9 hPa | 0 mm | - | 1049 W/m² | - |
| 1777930061 | 21.67° C | 44% | 1014.8 hPa | 0 mm | - | 620 W/m² | - |
| 1777929757 | 20.56° C | 51% | 1015 hPa | 0 mm | - | 895 W/m² | - |
| 1777929455 | 20° C | 48% | 1015 hPa | 0 mm | - | 364 W/m² | - |
| 1777929150 | 20° C | 48% | 1015 hPa | 0 mm | - | 309 W/m² | - |
| 1777928848 | 20° C | 48% | 1014.9 hPa | 0 mm | - | 303 W/m² | - |
| 1777928545 | 20° C | 46% | 1015.1 hPa | 0 mm | - | 282 W/m² | - |
| 1777928242 | 20.56° C | 47% | 1015.2 hPa | 0 mm | - | 328 W/m² | - |
| 1777927940 | 21.11° C | 44% | 1015.1 hPa | 0 mm | - | 324 W/m² | - |
* Rain latest hour (hover to see other rain measurements)
** Current wind speed in m/s (hover to see current wind gust speed)